Local Weather
17097
page-template-default,page,page-id-17097,bridge-core-1.0.4,ajax_fade,page_not_loaded,,hide_top_bar_on_mobile_header,qode-child-theme-ver-1.0.0,qode-theme-ver-18.0.9,qode-theme-bridge,qode_header_in_grid,wpb-js-composer js-comp-ver-4.11.2.1,vc_responsive
 

LOCAL WEATHER

METAR & TAF for EGTK Oxford

Available data for EGTK from the past hour
OXFORD
Metar
EGTK 180650Z 23008KT 9999 FEW007 SCT008 BKN010 16/16 Q1008

06:50 UTC

Wind: 230° 8kt

Visibility: 9999 m

Sky: FEW 700 ft

Temp: 16 deg C / 60.8 deg F

Dewpoint: 16 deg C / 60.8 deg F

Pressure: 1008 hPa

TAF
TAF EGTK 180555Z 1806/1815 21008KT 5000 -DZ BKN006 TEMPO 1806/1808 BKN010 PROB30 TEMPO 1806/1808 9999 NSW SCT010 BECMG 1808/1810 27012KT 9999 NSW FEW020